Kagamaru — JD3049 — position and weather

sailwx.info

Track history (hours):
 
Tides and Currents Weather Stations Pressure Air Temp Water Temp Dewpoint Dewpoint Depression Visibility Wind Speed Wind Dir Waves Ship Positions

Kagamaru

Last reported at 2016-May-02 03:33 UTC. Time now 2016-May-02 03:39 UTC.
Position N 35°27' E 139°39'.

Length 34 m; draft 3.6 m.

Type: Tug. MMSI: 431001272.

Date/timePositionNaut miles runAvg speedWind from/ knotsBaromVisibWave heightAir tempDewpointWater temp
2016-May-02 03:33N 35°27' E 139°39'0 0.0
2016-May-02 02:33N 35°27' E 139°39'0 0.0
2016-May-02 01:33N 35°27' E 139°39'0 0.0
2016-May-02 00:33N 35°27' E 139°39'0 0.0
2016-May-01 23:33N 35°27' E 139°39'0 0.0
2016-May-01 22:33N 35°27' E 139°39'1 1.3
2016-May-01 21:33N 35°27' E 139°41'1 0.9
2016-May-01 20:33N 35°26' E 139°42'1 1.1
2016-May-01 19:33N 35°27' E 139°41'1 0.6
2016-May-01 18:33N 35°28' E 139°41'1 0.9
2016-May-01 17:33N 35°28' E 139°42'0 0.4
2016-May-01 16:33N 35°28' E 139°42'4 4.2
2016-May-01 15:33N 35°24' E 139°40'0 0.5
2016-May-01 14:33N 35°24' E 139°41'1 1.0
2016-May-01 13:33N 35°23' E 139°40'0 0.0
2016-May-01 12:33N 35°23' E 139°40'0 0.0
2016-May-01 11:33N 35°23' E 139°40'0 0.0
2016-May-01 10:33N 35°23' E 139°40'1 0.8
2016-May-01 09:33N 35°24' E 139°41'4 3.8
2016-May-01 08:34N 35°28' E 139°42'1 0.7
2016-May-01 07:34N 35°27' E 139°41'1 1.4
2016-May-01 06:34N 35°27' E 139°39'0 0.0
2016-May-01 05:34N 35°27' E 139°39'0 0.0
2016-May-01 04:34N 35°27' E 139°39'3 3.1
2016-May-01 03:33N 35°28' E 139°43'0 0.1
2016-May-01 02:34N 35°28' E 139°43'3 3.3
2016-May-01 01:33N 35°27' E 139°39'0 0.0
2016-May-01 00:34N 35°27' E 139°39'0 0.0
2016-Apr-30 23:34N 35°27' E 139°39'0 0.0
2016-Apr-30 22:34N 35°27' E 139°39'0 0.0
2016-Apr-30 21:34N 35°27' E 139°39'0 0.0
2016-Apr-30 20:34N 35°27' E 139°39'0 0.0
2016-Apr-30 19:34N 35°27' E 139°39'0 0.0
2016-Apr-30 18:33N 35°27' E 139°39'0 0.0
2016-Apr-30 17:34N 35°27' E 139°39'0 0.0
2016-Apr-30 16:34N 35°27' E 139°39'0 0.0
2016-Apr-30 15:34N 35°27' E 139°39'0 0.0
2016-Apr-30 14:34N 35°27' E 139°39'0 0.0
2016-Apr-30 13:34N 35°27' E 139°39'0 0.0
2016-Apr-30 12:34N 35°27' E 139°39'0 0.0
2016-Apr-30 11:33N 35°27' E 139°39'0 0.0
2016-Apr-30 10:34N 35°27' E 139°39'0 0.0
2016-Apr-30 09:34N 35°27' E 139°39'0 0.0
2016-Apr-30 08:34N 35°27' E 139°39'2 1.9
2016-Apr-30 07:34N 35°28' E 139°41'2 1.9
2016-Apr-30 06:33N 35°27' E 139°39'0 0.0
2016-Apr-30 05:33N 35°27' E 139°39'0 0.0
2016-Apr-30 04:34N 35°27' E 139°39'2 1.9
2016-Apr-30 03:34N 35°27' E 139°42'5 5.2
2016-Apr-30 02:34N 35°29' E 139°47'0 0.1
2016-Apr-30 01:34N 35°29' E 139°47'1 1.5
2016-Apr-30 00:33N 35°28' E 139°47'4 4.3
2016-Apr-29 23:34N 35°27' E 139°41'2 1.8
2016-Apr-29 22:34N 35°27' E 139°39'0 0.1
2016-Apr-29 21:34N 35°27' E 139°39'0 0.0
2016-Apr-29 20:34N 35°27' E 139°39'0 0.0
2016-Apr-29 19:34N 35°27' E 139°39'0 0.0
2016-Apr-29 18:34N 35°27' E 139°39'0 0.0
2016-Apr-29 17:34N 35°27' E 139°39'0 0.0
2016-Apr-29 16:34N 35°27' E 139°39'0 0.0
2016-Apr-29 15:34N 35°27' E 139°39'0 0.0
2016-Apr-29 14:34N 35°27' E 139°39'0 0.0
2016-Apr-29 13:34N 35°27' E 139°39'0 0.0
2016-Apr-29 12:34N 35°27' E 139°39'0 0.0
2016-Apr-29 11:34N 35°27' E 139°39'2 1.5
2016-Apr-29 10:33N 35°26' E 139°41'2 1.7
2016-Apr-29 09:34N 35°26' E 139°43'3 3.3
2016-Apr-29 08:34N 35°27' E 139°39'0 0.1
2016-Apr-29 07:34N 35°27' E 139°39'0 0.1
2016-Apr-29 06:34N 35°27' E 139°39'0 0.0
2016-Apr-29 05:34N 35°27' E 139°39'7 6.9
2016-Apr-29 04:34N 35°31' E 139°46'2 1.8
2016-Apr-29 03:34N 35°30' E 139°44'3 3.1
2016-Apr-29 02:34N 35°27' E 139°42'2 2.0
2016-Apr-29 01:34N 35°29' E 139°43'3 2.9
2016-Apr-29 00:34N 35°30' E 139°46'1 1.0
2016-Apr-28 23:34N 35°30' E 139°47'1 0.9
2016-Apr-28 22:34N 35°30' E 139°46'4 3.6
2016-Apr-28 21:34N 35°27' E 139°43'3 2.7
2016-Apr-28 20:34N 35°27' E 139°39'0 0.0
2016-Apr-28 19:34N 35°27' E 139°39'0 0.0
2016-Apr-28 18:34N 35°27' E 139°39'0 0.0
2016-Apr-28 17:34N 35°27' E 139°39'0 0.0
2016-Apr-28 16:33N 35°27' E 139°39'0 0.0
2016-Apr-28 15:34N 35°27' E 139°39'0 0.0
2016-Apr-28 14:34N 35°27' E 139°39'0 0.0
2016-Apr-28 13:33N 35°27' E 139°39'0 0.0
2016-Apr-28 12:34N 35°27' E 139°39'0 0.0
2016-Apr-28 11:33N 35°27' E 139°39'1 0.6
2016-Apr-28 10:34N 35°27' E 139°40'1 0.5
2016-Apr-28 09:34N 35°27' E 139°39'0 0.0
2016-Apr-28 08:34N 35°27' E 139°39'0 0.0
2016-Apr-28 07:34N 35°27' E 139°39'2 1.9
2016-Apr-28 06:33N 35°28' E 139°42'2 2.0
2016-Apr-28 05:33N 35°27' E 139°39'0 0.0
2016-Apr-28 04:34N 35°27' E 139°39'0 0.0
2016-Apr-28 03:34N 35°27' E 139°39'0 0.0
2016-Apr-28 02:34N 35°27' E 139°39'0 0.0
2016-Apr-28 01:34N 35°27' E 139°39'0 0.2
2016-Apr-28 00:34N 35°27' E 139°39'4 4.5
2016-Apr-27 23:34N 35°29' E 139°45'0 0.2
2016-Apr-27 22:34N 35°29' E 139°45'2 2.5
2016-Apr-27 21:34N 35°27' E 139°47'6 6.3
2016-Apr-27 20:33N 35°27' E 139°39'0 0.0
2016-Apr-27 19:34N 35°27' E 139°39'0 0.0
2016-Apr-27 18:34N 35°27' E 139°39'0 0.0
2016-Apr-27 17:33N 35°27' E 139°39'0 0.0
2016-Apr-27 16:34N 35°27' E 139°39'0 0.0
2016-Apr-27 15:34N 35°27' E 139°39'0 0.0
2016-Apr-27 14:34N 35°27' E 139°39'0 0.0
2016-Apr-27 13:34N 35°27' E 139°39'0 0.0
2016-Apr-27 12:34N 35°27' E 139°39'0 0.0
2016-Apr-27 11:34N 35°27' E 139°39'0 0.0
2016-Apr-27 10:34N 35°27' E 139°39'0 0.0
2016-Apr-27 09:33N 35°27' E 139°39'0 0.0
2016-Apr-27 08:34N 35°27' E 139°39'0 0.0
2016-Apr-27 07:34N 35°27' E 139°39'1 1.4
2016-Apr-27 06:34N 35°27' E 139°41'5 4.7
2016-Apr-27 05:33N 35°30' E 139°46'5 5.0
2016-Apr-27 04:33N 35°27' E 139°41'1 1.1
2016-Apr-27 03:34N 35°27' E 139°39'0 0.0
2016-Apr-27 02:34N 35°27' E 139°39'0 0.0
2016-Apr-27 01:34N 35°27' E 139°39'0 0.0
2016-Apr-27 00:33N 35°27' E 139°39'3 2.8
2016-Apr-26 23:34N 35°24' E 139°39'2 1.7
2016-Apr-26 22:34N 35°24' E 139°42'3 3.5
2016-Apr-26 21:33N 35°27' E 139°39'0 0.0
2016-Apr-26 20:34N 35°27' E 139°39'0 0.0
2016-Apr-26 19:34N 35°27' E 139°39'0 0.0
2016-Apr-26 18:34N 35°27' E 139°39'0 0.0
2016-Apr-26 17:33N 35°27' E 139°39'0 0.0
2016-Apr-26 16:33N 35°27' E 139°39'0 0.0
2016-Apr-26 15:34N 35°27' E 139°39'0 0.0
2016-Apr-26 14:34N 35°27' E 139°39'0 0.0
2016-Apr-26 13:34N 35°27' E 139°39'0 0.0
2016-Apr-26 12:34N 35°27' E 139°39'0 0.0
2016-Apr-26 11:34N 35°27' E 139°39'0 0.0
2016-Apr-26 10:34N 35°27' E 139°39'0 0.0
2016-Apr-26 09:33N 35°27' E 139°39'0 0.0
2016-Apr-26 08:34N 35°27' E 139°39'0 0.0
2016-Apr-26 07:34N 35°27' E 139°39'2 2.2
2016-Apr-26 06:34N 35°26' E 139°41'6 5.9
2016-Apr-26 05:34N 35°29' E 139°47'0 0.0
2016-Apr-26 04:34N 35°29' E 139°47'2 2.1
2016-Apr-26 03:34N 35°27' E 139°46'3 3.4
2016-Apr-26 02:34N 35°27' E 139°42'0 0.0
2016-Apr-26 01:34N 35°27' E 139°42'0 0.0
2016-Apr-26 00:34N 35°27' E 139°42'0 0.0
2016-Apr-25 23:34N 35°27' E 139°42'4 3.6
2016-Apr-25 22:34N 35°23' E 139°41'1 1.3
2016-Apr-25 21:34N 35°23' E 139°40'4 3.6
2016-Apr-25 20:34N 35°27' E 139°39'0 0.0
2016-Apr-25 19:34N 35°27' E 139°39'0 0.0
2016-Apr-25 18:34N 35°27' E 139°39'0 0.0
2016-Apr-25 17:34N 35°27' E 139°39'0 0.0
2016-Apr-25 16:34N 35°27' E 139°39'0 0.0
2016-Apr-25 15:33N 35°27' E 139°39'0 0.0
2016-Apr-25 14:34N 35°27' E 139°39'0 0.0
2016-Apr-25 13:34N 35°27' E 139°39'0 0.0
2016-Apr-25 12:34N 35°27' E 139°39'0 0.0
2016-Apr-25 11:34N 35°27' E 139°39'0 0.0
2016-Apr-25 10:34N 35°27' E 139°39'0 0.4
2016-Apr-25 09:34N 35°27' E 139°40'1110.9
2016-Apr-25 08:34N 35°30' E 139°52'3 3.1
2016-Apr-25 07:34N 35°31' E 139°56'0 0.2
2016-Apr-25 06:33N 35°31' E 139°56'3 2.6
2016-Apr-25 05:34N 35°29' E 139°53'7 6.9
2016-Apr-25 04:33N 35°27' E 139°45'5 4.9
2016-Apr-25 03:34N 35°27' E 139°39'0 0.0
2016-Apr-25 02:34N 35°27' E 139°39'0 0.0
2016-Apr-25 01:34N 35°27' E 139°39'0 0.0
2016-Apr-25 00:34N 35°27' E 139°39'4 4.0
2016-Apr-24 23:34N 35°29' E 139°43'1 0.7
2016-Apr-24 22:34N 35°30' E 139°44'3 2.8
2016-Apr-24 21:33N 35°27' E 139°42'3 2.6
2016-Apr-24 20:34N 35°27' E 139°39'0 0.0
2016-Apr-24 19:34N 35°27' E 139°39'0 0.0
2016-Apr-24 18:34N 35°27' E 139°39'0 0.0
2016-Apr-24 17:33N 35°27' E 139°39'0 0.0
2016-Apr-24 16:34N 35°27' E 139°39'0 0.0
2016-Apr-24 15:34N 35°27' E 139°39'0 0.0
2016-Apr-24 14:34N 35°27' E 139°39'0 0.0
2016-Apr-24 13:34N 35°27' E 139°39'0 0.0
2016-Apr-24 12:34N 35°27' E 139°39'0 0.0
2016-Apr-24 11:33N 35°27' E 139°39'0 0.0
2016-Apr-24 10:34N 35°27' E 139°39'0 0.0
2016-Apr-24 09:34N 35°27' E 139°39'0 0.0
2016-Apr-24 08:34N 35°27' E 139°39'0 0.0
2016-Apr-24 07:33N 35°27' E 139°39'2 1.9
2016-Apr-24 06:34N 35°28' E 139°41'1 0.6
2016-Apr-24 05:34N 35°28' E 139°42'0 0.1
2016-Apr-24 04:34N 35°27' E 139°42'5 4.9
2016-Apr-24 03:34N 35°24' E 139°38'0 0.0
2016-Apr-24 02:34N 35°24' E 139°38'3 3.4
2016-Apr-24 01:34N 35°22' E 139°41'1 0.9
2016-Apr-24 00:34N 35°22' E 139°40'0 0.2
2016-Apr-23 23:34N 35°23' E 139°41'0 0.1
2016-Apr-23 22:34N 35°23' E 139°41'4 3.9
2016-Apr-23 21:33N 35°27' E 139°40'1 0.9
2016-Apr-23 20:34N 35°27' E 139°39'0 0.0
2016-Apr-23 19:34N 35°27' E 139°39'0 0.0
2016-Apr-23 18:34N 35°27' E 139°39'0 0.0
2016-Apr-23 17:34N 35°27' E 139°39'0 0.0
2016-Apr-23 16:34N 35°27' E 139°39'0 0.0
2016-Apr-23 15:34N 35°27' E 139°39'0 0.0
2016-Apr-23 14:34N 35°27' E 139°39'0 0.0
2016-Apr-23 13:33N 35°27' E 139°39'0 0.0
2016-Apr-23 12:34N 35°27' E 139°39'0 0.0
2016-Apr-23 11:33N 35°27' E 139°39'0 0.0
2016-Apr-23 10:34N 35°27' E 139°39'0 0.0
2016-Apr-23 09:34N 35°27' E 139°39'0 0.0
2016-Apr-23 08:34N 35°27' E 139°39'0 0.0
2016-Apr-23 07:34N 35°27' E 139°39'0 0.0
2016-Apr-23 06:34N 35°27' E 139°39'1 1.0
2016-Apr-23 05:34N 35°27' E 139°40'3 2.8
2016-Apr-23 04:33N 35°25' E 139°39'2 2.4
2016-Apr-23 03:34N 35°23' E 139°41'1 0.6
2016-Apr-23 02:33N 35°23' E 139°41'1 1.3
2016-Apr-23 01:33N 35°24' E 139°41'2 1.6
2016-Apr-23 00:34N 35°23' E 139°42'5 5.0
2016-Apr-22 23:34N 35°28' E 139°40'3 2.7
2016-Apr-22 22:34N 35°29' E 139°43'2 2.0
2016-Apr-22 21:34N 35°27' E 139°43'3 2.8
2016-Apr-22 20:33N 35°27' E 139°39'0 0.0
2016-Apr-22 19:34N 35°27' E 139°39'0 0.0
2016-Apr-22 18:34N 35°27' E 139°39'0 0.0
2016-Apr-22 17:34N 35°27' E 139°39'0 0.0
2016-Apr-22 16:34N 35°27' E 139°39'0 0.0
2016-Apr-22 15:34N 35°27' E 139°39'0 0.0
2016-Apr-22 14:34N 35°27' E 139°39'0 0.0
2016-Apr-22 13:34N 35°27' E 139°39'0 0.0
2016-Apr-22 12:34N 35°27' E 139°39'0 0.0
2016-Apr-22 11:34N 35°27' E 139°39'0 0.0
2016-Apr-22 10:34N 35°27' E 139°39'0 0.0
2016-Apr-22 09:34N 35°27' E 139°39'0 0.0
2016-Apr-22 08:33N 35°27' E 139°39'0 0.0
2016-Apr-22 07:34N 35°27' E 139°39'0 0.0
2016-Apr-22 06:33N 35°27' E 139°39'2 1.8
2016-Apr-22 05:34N 35°28' E 139°41'1 0.7
2016-Apr-22 04:34N 35°28' E 139°42'2 2.4
2016-Apr-22 03:34N 35°27' E 139°39'  
Track history (hours):
 
Tides and Currents Weather Stations Pressure Air Temp Water Temp Dewpoint Dewpoint Depression Visibility Wind Speed Wind Dir Waves Ship Positions

Kagamaru

Last reported at 2016-May-02 03:33 UTC. Time now 2016-May-02 03:39 UTC.
Position N 35°27' E 139°39'.

Length 34 m; draft 3.6 m.

Type: Tug. MMSI: 431001272.

Date/timePositionNaut miles runAvg speedWind from/ knotsBaromVisibWave heightAir tempDewpointWater temp
2016-May-02 03:33N 35°27' E 139°39'0 0.0
2016-May-02 02:33N 35°27' E 139°39'0 0.0
2016-May-02 01:33N 35°27' E 139°39'0 0.0
2016-May-02 00:33N 35°27' E 139°39'0 0.0
2016-May-01 23:33N 35°27' E 139°39'0 0.0
2016-May-01 22:33N 35°27' E 139°39'1 1.3
2016-May-01 21:33N 35°27' E 139°41'1 0.9
2016-May-01 20:33N 35°26' E 139°42'1 1.1
2016-May-01 19:33N 35°27' E 139°41'1 0.6
2016-May-01 18:33N 35°28' E 139°41'1 0.9
2016-May-01 17:33N 35°28' E 139°42'0 0.4
2016-May-01 16:33N 35°28' E 139°42'4 4.2
2016-May-01 15:33N 35°24' E 139°40'0 0.5
2016-May-01 14:33N 35°24' E 139°41'1 1.0
2016-May-01 13:33N 35°23' E 139°40'0 0.0
2016-May-01 12:33N 35°23' E 139°40'0 0.0
2016-May-01 11:33N 35°23' E 139°40'0 0.0
2016-May-01 10:33N 35°23' E 139°40'1 0.8
2016-May-01 09:33N 35°24' E 139°41'4 3.8
2016-May-01 08:34N 35°28' E 139°42'1 0.7
2016-May-01 07:34N 35°27' E 139°41'1 1.4
2016-May-01 06:34N 35°27' E 139°39'0 0.0
2016-May-01 05:34N 35°27' E 139°39'0 0.0
2016-May-01 04:34N 35°27' E 139°39'3 3.1
2016-May-01 03:33N 35°28' E 139°43'0 0.1
2016-May-01 02:34N 35°28' E 139°43'3 3.3
2016-May-01 01:33N 35°27' E 139°39'0 0.0
2016-May-01 00:34N 35°27' E 139°39'0 0.0
2016-Apr-30 23:34N 35°27' E 139°39'0 0.0
2016-Apr-30 22:34N 35°27' E 139°39'0 0.0
2016-Apr-30 21:34N 35°27' E 139°39'0 0.0
2016-Apr-30 20:34N 35°27' E 139°39'0 0.0
2016-Apr-30 19:34N 35°27' E 139°39'0 0.0
2016-Apr-30 18:33N 35°27' E 139°39'0 0.0
2016-Apr-30 17:34N 35°27' E 139°39'0 0.0
2016-Apr-30 16:34N 35°27' E 139°39'0 0.0
2016-Apr-30 15:34N 35°27' E 139°39'0 0.0
2016-Apr-30 14:34N 35°27' E 139°39'0 0.0
2016-Apr-30 13:34N 35°27' E 139°39'0 0.0
2016-Apr-30 12:34N 35°27' E 139°39'0 0.0
2016-Apr-30 11:33N 35°27' E 139°39'0 0.0
2016-Apr-30 10:34N 35°27' E 139°39'0 0.0
2016-Apr-30 09:34N 35°27' E 139°39'0 0.0
2016-Apr-30 08:34N 35°27' E 139°39'2 1.9
2016-Apr-30 07:34N 35°28' E 139°41'2 1.9
2016-Apr-30 06:33N 35°27' E 139°39'0 0.0
2016-Apr-30 05:33N 35°27' E 139°39'0 0.0
2016-Apr-30 04:34N 35°27' E 139°39'2 1.9
2016-Apr-30 03:34N 35°27' E 139°42'5 5.2
2016-Apr-30 02:34N 35°29' E 139°47'0 0.1
2016-Apr-30 01:34N 35°29' E 139°47'1 1.5
2016-Apr-30 00:33N 35°28' E 139°47'4 4.3
2016-Apr-29 23:34N 35°27' E 139°41'2 1.8
2016-Apr-29 22:34N 35°27' E 139°39'0 0.1
2016-Apr-29 21:34N 35°27' E 139°39'0 0.0
2016-Apr-29 20:34N 35°27' E 139°39'0 0.0
2016-Apr-29 19:34N 35°27' E 139°39'0 0.0
2016-Apr-29 18:34N 35°27' E 139°39'0 0.0
2016-Apr-29 17:34N 35°27' E 139°39'0 0.0
2016-Apr-29 16:34N 35°27' E 139°39'0 0.0
2016-Apr-29 15:34N 35°27' E 139°39'0 0.0
2016-Apr-29 14:34N 35°27' E 139°39'0 0.0
2016-Apr-29 13:34N 35°27' E 139°39'0 0.0
2016-Apr-29 12:34N 35°27' E 139°39'0 0.0
2016-Apr-29 11:34N 35°27' E 139°39'2 1.5
2016-Apr-29 10:33N 35°26' E 139°41'2 1.7
2016-Apr-29 09:34N 35°26' E 139°43'3 3.3
2016-Apr-29 08:34N 35°27' E 139°39'0 0.1
2016-Apr-29 07:34N 35°27' E 139°39'0 0.1
2016-Apr-29 06:34N 35°27' E 139°39'0 0.0
2016-Apr-29 05:34N 35°27' E 139°39'7 6.9
2016-Apr-29 04:34N 35°31' E 139°46'2 1.8
2016-Apr-29 03:34N 35°30' E 139°44'3 3.1
2016-Apr-29 02:34N 35°27' E 139°42'2 2.0
2016-Apr-29 01:34N 35°29' E 139°43'3 2.9
2016-Apr-29 00:34N 35°30' E 139°46'1 1.0
2016-Apr-28 23:34N 35°30' E 139°47'1 0.9
2016-Apr-28 22:34N 35°30' E 139°46'4 3.6
2016-Apr-28 21:34N 35°27' E 139°43'3 2.7
2016-Apr-28 20:34N 35°27' E 139°39'0 0.0
2016-Apr-28 19:34N 35°27' E 139°39'0 0.0
2016-Apr-28 18:34N 35°27' E 139°39'0 0.0
2016-Apr-28 17:34N 35°27' E 139°39'0 0.0
2016-Apr-28 16:33N 35°27' E 139°39'0 0.0
2016-Apr-28 15:34N 35°27' E 139°39'0 0.0
2016-Apr-28 14:34N 35°27' E 139°39'0 0.0
2016-Apr-28 13:33N 35°27' E 139°39'0 0.0
2016-Apr-28 12:34N 35°27' E 139°39'0 0.0
2016-Apr-28 11:33N 35°27' E 139°39'1 0.6
2016-Apr-28 10:34N 35°27' E 139°40'1 0.5
2016-Apr-28 09:34N 35°27' E 139°39'0 0.0
2016-Apr-28 08:34N 35°27' E 139°39'0 0.0
2016-Apr-28 07:34N 35°27' E 139°39'2 1.9
2016-Apr-28 06:33N 35°28' E 139°42'2 2.0
2016-Apr-28 05:33N 35°27' E 139°39'0 0.0
2016-Apr-28 04:34N 35°27' E 139°39'0 0.0
2016-Apr-28 03:34N 35°27' E 139°39'0 0.0
2016-Apr-28 02:34N 35°27' E 139°39'0 0.0
2016-Apr-28 01:34N 35°27' E 139°39'0 0.2
2016-Apr-28 00:34N 35°27' E 139°39'4 4.5
2016-Apr-27 23:34N 35°29' E 139°45'0 0.2
2016-Apr-27 22:34N 35°29' E 139°45'2 2.5
2016-Apr-27 21:34N 35°27' E 139°47'6 6.3
2016-Apr-27 20:33N 35°27' E 139°39'0 0.0
2016-Apr-27 19:34N 35°27' E 139°39'0 0.0
2016-Apr-27 18:34N 35°27' E 139°39'0 0.0
2016-Apr-27 17:33N 35°27' E 139°39'0 0.0
2016-Apr-27 16:34N 35°27' E 139°39'0 0.0
2016-Apr-27 15:34N 35°27' E 139°39'0 0.0
2016-Apr-27 14:34N 35°27' E 139°39'0 0.0
2016-Apr-27 13:34N 35°27' E 139°39'0 0.0
2016-Apr-27 12:34N 35°27' E 139°39'0 0.0
2016-Apr-27 11:34N 35°27' E 139°39'0 0.0
2016-Apr-27 10:34N 35°27' E 139°39'0 0.0
2016-Apr-27 09:33N 35°27' E 139°39'0 0.0
2016-Apr-27 08:34N 35°27' E 139°39'0 0.0
2016-Apr-27 07:34N 35°27' E 139°39'1 1.4
2016-Apr-27 06:34N 35°27' E 139°41'5 4.7
2016-Apr-27 05:33N 35°30' E 139°46'5 5.0
2016-Apr-27 04:33N 35°27' E 139°41'1 1.1
2016-Apr-27 03:34N 35°27' E 139°39'0 0.0
2016-Apr-27 02:34N 35°27' E 139°39'0 0.0
2016-Apr-27 01:34N 35°27' E 139°39'0 0.0
2016-Apr-27 00:33N 35°27' E 139°39'3 2.8
2016-Apr-26 23:34N 35°24' E 139°39'2 1.7
2016-Apr-26 22:34N 35°24' E 139°42'3 3.5
2016-Apr-26 21:33N 35°27' E 139°39'0 0.0
2016-Apr-26 20:34N 35°27' E 139°39'0 0.0
2016-Apr-26 19:34N 35°27' E 139°39'0 0.0
2016-Apr-26 18:34N 35°27' E 139°39'0 0.0
2016-Apr-26 17:33N 35°27' E 139°39'0 0.0
2016-Apr-26 16:33N 35°27' E 139°39'0 0.0
2016-Apr-26 15:34N 35°27' E 139°39'0 0.0
2016-Apr-26 14:34N 35°27' E 139°39'0 0.0
2016-Apr-26 13:34N 35°27' E 139°39'0 0.0
2016-Apr-26 12:34N 35°27' E 139°39'0 0.0
2016-Apr-26 11:34N 35°27' E 139°39'0 0.0
2016-Apr-26 10:34N 35°27' E 139°39'0 0.0
2016-Apr-26 09:33N 35°27' E 139°39'0 0.0
2016-Apr-26 08:34N 35°27' E 139°39'0 0.0
2016-Apr-26 07:34N 35°27' E 139°39'2 2.2
2016-Apr-26 06:34N 35°26' E 139°41'6 5.9
2016-Apr-26 05:34N 35°29' E 139°47'0 0.0
2016-Apr-26 04:34N 35°29' E 139°47'2 2.1
2016-Apr-26 03:34N 35°27' E 139°46'3 3.4
2016-Apr-26 02:34N 35°27' E 139°42'0 0.0
2016-Apr-26 01:34N 35°27' E 139°42'0 0.0
2016-Apr-26 00:34N 35°27' E 139°42'0 0.0
2016-Apr-25 23:34N 35°27' E 139°42'4 3.6
2016-Apr-25 22:34N 35°23' E 139°41'1 1.3
2016-Apr-25 21:34N 35°23' E 139°40'4 3.6
2016-Apr-25 20:34N 35°27' E 139°39'0 0.0
2016-Apr-25 19:34N 35°27' E 139°39'0 0.0
2016-Apr-25 18:34N 35°27' E 139°39'0 0.0
2016-Apr-25 17:34N 35°27' E 139°39'0 0.0
2016-Apr-25 16:34N 35°27' E 139°39'0 0.0
2016-Apr-25 15:33N 35°27' E 139°39'0 0.0
2016-Apr-25 14:34N 35°27' E 139°39'0 0.0
2016-Apr-25 13:34N 35°27' E 139°39'0 0.0
2016-Apr-25 12:34N 35°27' E 139°39'0 0.0
2016-Apr-25 11:34N 35°27' E 139°39'0 0.0
2016-Apr-25 10:34N 35°27' E 139°39'0 0.4
2016-Apr-25 09:34N 35°27' E 139°40'1110.9
2016-Apr-25 08:34N 35°30' E 139°52'3 3.1
2016-Apr-25 07:34N 35°31' E 139°56'0 0.2
2016-Apr-25 06:33N 35°31' E 139°56'3 2.6
2016-Apr-25 05:34N 35°29' E 139°53'7 6.9
2016-Apr-25 04:33N 35°27' E 139°45'5 4.9
2016-Apr-25 03:34N 35°27' E 139°39'0 0.0
2016-Apr-25 02:34N 35°27' E 139°39'0 0.0
2016-Apr-25 01:34N 35°27' E 139°39'0 0.0
2016-Apr-25 00:34N 35°27' E 139°39'4 4.0
2016-Apr-24 23:34N 35°29' E 139°43'1 0.7
2016-Apr-24 22:34N 35°30' E 139°44'3 2.8
2016-Apr-24 21:33N 35°27' E 139°42'3 2.6
2016-Apr-24 20:34N 35°27' E 139°39'0 0.0
2016-Apr-24 19:34N 35°27' E 139°39'0 0.0
2016-Apr-24 18:34N 35°27' E 139°39'0 0.0
2016-Apr-24 17:33N 35°27' E 139°39'0 0.0
2016-Apr-24 16:34N 35°27' E 139°39'0 0.0
2016-Apr-24 15:34N 35°27' E 139°39'0 0.0
2016-Apr-24 14:34N 35°27' E 139°39'0 0.0
2016-Apr-24 13:34N 35°27' E 139°39'0 0.0
2016-Apr-24 12:34N 35°27' E 139°39'0 0.0
2016-Apr-24 11:33N 35°27' E 139°39'0 0.0
2016-Apr-24 10:34N 35°27' E 139°39'0 0.0
2016-Apr-24 09:34N 35°27' E 139°39'0 0.0
2016-Apr-24 08:34N 35°27' E 139°39'0 0.0
2016-Apr-24 07:33N 35°27' E 139°39'2 1.9
2016-Apr-24 06:34N 35°28' E 139°41'1 0.6
2016-Apr-24 05:34N 35°28' E 139°42'0 0.1
2016-Apr-24 04:34N 35°27' E 139°42'5 4.9
2016-Apr-24 03:34N 35°24' E 139°38'0 0.0
2016-Apr-24 02:34N 35°24' E 139°38'3 3.4
2016-Apr-24 01:34N 35°22' E 139°41'1 0.9
2016-Apr-24 00:34N 35°22' E 139°40'0 0.2
2016-Apr-23 23:34N 35°23' E 139°41'0 0.1
2016-Apr-23 22:34N 35°23' E 139°41'4 3.9
2016-Apr-23 21:33N 35°27' E 139°40'1 0.9
2016-Apr-23 20:34N 35°27' E 139°39'0 0.0
2016-Apr-23 19:34N 35°27' E 139°39'0 0.0
2016-Apr-23 18:34N 35°27' E 139°39'0 0.0
2016-Apr-23 17:34N 35°27' E 139°39'0 0.0
2016-Apr-23 16:34N 35°27' E 139°39'0 0.0
2016-Apr-23 15:34N 35°27' E 139°39'0 0.0
2016-Apr-23 14:34N 35°27' E 139°39'0 0.0
2016-Apr-23 13:33N 35°27' E 139°39'0 0.0
2016-Apr-23 12:34N 35°27' E 139°39'0 0.0
2016-Apr-23 11:33N 35°27' E 139°39'0 0.0
2016-Apr-23 10:34N 35°27' E 139°39'0 0.0
2016-Apr-23 09:34N 35°27' E 139°39'0 0.0
2016-Apr-23 08:34N 35°27' E 139°39'0 0.0
2016-Apr-23 07:34N 35°27' E 139°39'0 0.0
2016-Apr-23 06:34N 35°27' E 139°39'1 1.0
2016-Apr-23 05:34N 35°27' E 139°40'3 2.8
2016-Apr-23 04:33N 35°25' E 139°39'2 2.4
2016-Apr-23 03:34N 35°23' E 139°41'1 0.6
2016-Apr-23 02:33N 35°23' E 139°41'1 1.3
2016-Apr-23 01:33N 35°24' E 139°41'2 1.6
2016-Apr-23 00:34N 35°23' E 139°42'5 5.0
2016-Apr-22 23:34N 35°28' E 139°40'3 2.7
2016-Apr-22 22:34N 35°29' E 139°43'2 2.0
2016-Apr-22 21:34N 35°27' E 139°43'3 2.8
2016-Apr-22 20:33N 35°27' E 139°39'0 0.0
2016-Apr-22 19:34N 35°27' E 139°39'0 0.0
2016-Apr-22 18:34N 35°27' E 139°39'0 0.0
2016-Apr-22 17:34N 35°27' E 139°39'0 0.0
2016-Apr-22 16:34N 35°27' E 139°39'0 0.0
2016-Apr-22 15:34N 35°27' E 139°39'0 0.0
2016-Apr-22 14:34N 35°27' E 139°39'0 0.0
2016-Apr-22 13:34N 35°27' E 139°39'0 0.0
2016-Apr-22 12:34N 35°27' E 139°39'0 0.0
2016-Apr-22 11:34N 35°27' E 139°39'0 0.0
2016-Apr-22 10:34N 35°27' E 139°39'0 0.0
2016-Apr-22 09:34N 35°27' E 139°39'0 0.0
2016-Apr-22 08:33N 35°27' E 139°39'0 0.0
2016-Apr-22 07:34N 35°27' E 139°39'0 0.0
2016-Apr-22 06:33N 35°27' E 139°39'2 1.8
2016-Apr-22 05:34N 35°28' E 139°41'1 0.7
2016-Apr-22 04:34N 35°28' E 139°42'2 2.4
2016-Apr-22 03:34N 35°27' E 139°39'  

Dump ship's entire track history